Wetterdaten: aktuell Montag, 09.12.2019 22:34
Datum Zeit Temperatur Bodentemp. Luftfeuchte Luftdruck Regen Wind Richtung Richtung Sonnenschein
09.12.2019 22:34 4,4 C -0,9 C 79 % 1013 hPa 0,0 l/m 14,8 km/h (3 Bft) W-NW45 290 0 min
09.12.2019 22:29 4,4 C -0,9 C 79 % 1013 hPa 0,0 l/m 14,8 km/h (3 Bft) W-NW45 290 0 min
09.12.2019 22:24 4,5 C -0,9 C 79 % 1013 hPa 0,0 l/m 16,7 km/h (3 Bft) W-NW45 290 0 min
09.12.2019 22:19 4,6 C -0,9 C 80 % 1013 hPa 0,0 l/m 16,7 km/h (3 Bft) W-NW45 290 0 min
09.12.2019 22:14 4,6 C -0,9 C 80 % 1013 hPa 0,0 l/m 16,7 km/h (3 Bft) W-NW45 290 0 min
09.12.2019 22:08 4,7 C -0,9 C 81 % 1013 hPa 0,0 l/m 16,7 km/h (3 Bft) W-NW45 290 0 min
09.12.2019 22:04 4,7 C -0,9 C 81 % 1013 hPa 0,0 l/m 18,8 km/h (3 Bft) W-NW45 295 0 min
09.12.2019 21:59 4,7 C -0,8 C 81 % 1013 hPa 0,0 l/m 15,0 km/h (3 Bft) W-NW45 290 0 min
09.12.2019 21:54 4,7 C -0,9 C 81 % 1013 hPa 0,0 l/m 17,8 km/h (3 Bft) W-NW45 300 0 min
09.12.2019 21:49 4,7 C -0,8 C 82 % 1009 hPa 0,0 l/m 17,8 km/h (3 Bft) W-NW45 300 0 min
09.12.2019 21:44 4,7 C -0,8 C 82 % 1009 hPa 0,0 l/m 13,6 km/h (3 Bft) W-NW45 290 0 min
09.12.2019 21:39 4,7 C -0,7 C 82 % 1009 hPa 0,0 l/m 13,6 km/h (3 Bft) W-NW45 290 0 min
09.12.2019 21:33 5,5 C -0,6 C 82 % 1009 hPa 0,0 l/m 13,6 km/h (3 Bft) W-NW45 290 0 min
09.12.2019 21:29 5,5 C -0,6 C 82 % 1009 hPa 0,0 l/m 13,6 km/h (3 Bft) W-NW45 290 0 min
09.12.2019 21:24 5,5 C -0,6 C 82 % 1009 hPa 0,0 l/m 13,6 km/h (3 Bft) W-NW45 290 0 min
09.12.2019 21:19 5,5 C -0,5 C 82 % 1009 hPa 0,0 l/m 13,6 km/h (3 Bft) W-NW45 290 0 min
09.12.2019 21:14 5,5 C -0,5 C 82 % 1009 hPa 0,0 l/m 14,1 km/h (3 Bft) NW67.5 305 0 min
09.12.2019 21:09 5,5 C -0,2 C 82 % 1009 hPa 0,0 l/m 16,9 km/h (3 Bft) NW45 305 0 min
09.12.2019 21:04 5,5 C -0,2 C 82 % 1009 hPa 0,0 l/m 20,7 km/h (4 Bft) NW22.5 310 0 min
09.12.2019 20:59 5,5 C -0,2 C 82 % 1009 hPa 0,0 l/m 20,7 km/h (4 Bft) NW22.5 310 0 min
09.12.2019 20:54 5,5 C -0,2 C 82 % 1009 hPa 0,0 l/m 20,7 km/h (4 Bft) NW22.5 310 0 min
09.12.2019 20:49 5,6 C 0,0 C 82 % 1009 hPa 0,0 l/m 20,7 km/h (4 Bft) NW22.5 310 0 min
09.12.2019 20:44 6,0 C 0,0 C 85 % 1009 hPa 0,0 l/m 20,0 km/h (4 Bft) NW45 310 0 min
09.12.2019 20:38 6,0 C 0,0 C 85 % 1009 hPa 0,0 l/m 20,0 km/h (4 Bft) NW45 310 0 min
09.12.2019 20:34 6,0 C 0,2 C 85 % 1009 hPa 0,0 l/m 20,0 km/h (4 Bft) NW45 310 0 min
09.12.2019 20:29 6,0 C 0,2 C 85 % 1009 hPa 0,0 l/m 20,0 km/h (4 Bft) NW45 310 0 min
09.12.2019 20:24 6,0 C 0,2 C 85 % 1009 hPa 0,0 l/m 20,0 km/h (4 Bft) NW45 310 0 min
09.12.2019 20:19 6,0 C 0,2 C 85 % 1009 hPa 0,0 l/m 20,0 km/h (4 Bft) NW45 310 0 min
09.12.2019 20:14 6,0 C 0,2 C 85 % 1009 hPa 0,0 l/m 20,0 km/h (4 Bft) NW45 310 0 min
09.12.2019 20:09 6,0 C 0,2 C 85 % 1009 hPa 0,0 l/m 20,0 km/h (4 Bft) W-NW22.5 300 0 min
09.12.2019 20:04 6,1 C 0,2 C 87 % 1009 hPa 0,0 l/m 24,0 km/h (4 Bft) NW22.5 310 0 min
09.12.2019 19:59 6,1 C 0,2 C 87 % 1007 hPa 0,0 l/m 16,4 km/h (3 Bft) NW45 305 0 min
09.12.2019 19:54 6,1 C 0,3 C 89 % 1007 hPa 0,0 l/m 16,4 km/h (3 Bft) NW45 305 0 min
09.12.2019 19:49 6,1 C 0,3 C 89 % 1007 hPa 0,0 l/m 21,6 km/h (4 Bft) NW45 315 0 min
09.12.2019 19:43 6,2 C 0,5 C 91 % 1007 hPa 0,0 l/m 21,6 km/h (4 Bft) NW45 315 0 min
09.12.2019 19:39 6,2 C 0,5 C 91 % 1007 hPa 0,0 l/m 21,6 km/h (4 Bft) NW45 315 0 min
09.12.2019 19:34 6,2 C 0,5 C 93 % 1007 hPa 0,0 l/m 21,6 km/h (4 Bft) NW45 315 0 min
09.12.2019 19:29 6,2 C 0,5 C 93 % 1007 hPa 0,0 l/m 21,6 km/h (4 Bft) NW45 315 0 min
09.12.2019 19:24 6,2 C 0,5 C 94 % 1007 hPa 0,0 l/m 21,6 km/h (4 Bft) NW45 315 0 min
09.12.2019 19:19 6,2 C 0,5 C 94 % 1007 hPa 0,0 l/m 28,2 km/h (5 Bft) N-NW67.5 330 0 min
09.12.2019 19:14 6,2 C 0,5 C 94 % 1007 hPa 0,0 l/m 28,2 km/h (5 Bft) N-NW67.5 330 0 min
09.12.2019 19:09 6,2 C 0,5 C 94 % 1007 hPa 0,0 l/m 28,2 km/h (5 Bft) N-NW67.5 330 0 min
09.12.2019 19:04 6,2 C -0,6 C 94 % 1007 hPa 0,4 l/m 28,2 km/h (5 Bft) N-NW67.5 330 0 min
09.12.2019 18:59 6,2 C -0,6 C 94 % 1005 hPa 0,0 l/m 28,2 km/h (5 Bft) N-NW67.5 330 0 min
09.12.2019 18:54 6,2 C -0,6 C 94 % 1005 hPa 0,0 l/m 28,2 km/h (5 Bft) N-NW67.5 330 0 min
09.12.2019 18:48 6,2 C 0,5 C 94 % 1005 hPa 0,0 l/m 28,2 km/h (5 Bft) N-NW67.5 330 0 min
09.12.2019 18:44 6,1 C 0,5 C 93 % 1005 hPa 0,0 l/m 28,2 km/h (5 Bft) N-NW67.5 330 0 min
09.12.2019 18:39 6,1 C 0,5 C 93 % 1005 hPa 0,0 l/m 28,2 km/h (5 Bft) N-NW67.5 330 0 min
09.12.2019 18:34 6,1 C 0,6 C 93 % 1005 hPa 0,0 l/m 28,2 km/h (5 Bft) N-NW67.5 330 0 min
_ Min-Zeit 22:29 15:54 07:14 10:49 - 07:14 - - -
Minimum _ 4,4 C -3,7 C 61 % 796 hPa - 10,5 km/h (2 Bft) - - -
_ Max-Zeit 09:59 09:59 13:29 21:54 11:29 23:04 - - 23:04
Maximum _ 7,6 C 1,4 C 100 % 1013 hPa 2,2 l/m 51,0 km/h
SW (7 Bft)
- - 0 min
Durchschnitt _ 6,5 C 0,5 C 81 % 994 hPa #4,3 l/m 25,1 km/h (4 Bft) S-SW - #0 min.